QTR010 LBSF-LTFM
Flight info
| Callsign | QTR010 |
|---|---|
| Flight time | N/A |
| Altitude | 31000 |
| Route | RUMEN N739 PDV P127 AYTEK |
| Aircraft | B77W/H-SDE1E2E3FGHIJ2J3J4J5M1RWXY/LB1D1 |
Departure
| Time | N/A |
|---|---|
| Airport | Sofia Airport (LBSF) |
Arrival
| Time | 2026-05-06 16:37 |
|---|---|
| Airport | İstanbul Airport (LTFM) |
| Time | Latitude | Longitude | Altitude | Speed | Heading |
|---|---|---|---|---|---|
| 2026-05-06 15:53 | 42.36820 | 24.11997 | 22049 ft | 448 kts | 112° |
| 2026-05-06 15:54 | 42.35558 | 24.15863 | 22810 ft | 454 kts | 112° |
| 2026-05-06 15:54 | 42.34269 | 24.19803 | 23554 ft | 461 kts | 112° |
| 2026-05-06 15:54 | 42.32957 | 24.23813 | 24179 ft | 467 kts | 112° |
| 2026-05-06 15:54 | 42.31634 | 24.27847 | 24819 ft | 472 kts | 112° |
| 2026-05-06 15:55 | 42.30249 | 24.31895 | 25448 ft | 478 kts | 116° |
| 2026-05-06 15:55 | 42.28598 | 24.35824 | 26068 ft | 483 kts | 120° |
| 2026-05-06 15:55 | 42.26848 | 24.39717 | 26690 ft | 488 kts | 120° |
| 2026-05-06 15:55 | 42.25065 | 24.43640 | 27279 ft | 492 kts | 120° |
| 2026-05-06 15:56 | 42.23275 | 24.47584 | 28053 ft | 492 kts | 120° |
| 2026-05-06 15:56 | 42.21503 | 24.51516 | 28938 ft | 490 kts | 120° |
| 2026-05-06 15:56 | 42.19757 | 24.55406 | 29796 ft | 489 kts | 120° |
| 2026-05-06 15:56 | 42.18004 | 24.59325 | 30516 ft | 488 kts | 120° |
| 2026-05-06 15:57 | 42.16248 | 24.63253 | 30977 ft | 487 kts | 120° |
| 2026-05-06 15:57 | 42.14498 | 24.67160 | 30965 ft | 487 kts | 120° |
| 2026-05-06 15:57 | 42.10984 | 24.74991 | 31033 ft | 496 kts | 120° |
| 2026-05-06 15:58 | 42.09183 | 24.78995 | 31286 ft | 504 kts | 120° |
| 2026-05-06 15:58 | 42.07415 | 24.83112 | 31554 ft | 511 kts | 115° |
| 2026-05-06 15:58 | 42.06000 | 24.87514 | 31915 ft | 512 kts | 107° |
| 2026-05-06 15:58 | 42.04943 | 24.92073 | 32533 ft | 508 kts | 102° |
| 2026-05-06 15:59 | 42.04254 | 24.96711 | 33211 ft | 501 kts | 95° |
| 2026-05-06 15:59 | 42.03807 | 25.01335 | 33855 ft | 498 kts | 93° |
| 2026-05-06 15:59 | 42.03392 | 25.05958 | 34376 ft | 497 kts | 93° |
| 2026-05-06 15:59 | 42.02973 | 25.10564 | 34827 ft | 496 kts | 94° |
| 2026-05-06 16:00 | 42.02537 | 25.15169 | 34995 ft | 496 kts | 94° |
| 2026-05-06 16:00 | 42.02087 | 25.19725 | 34973 ft | 492 kts | 94° |
| 2026-05-06 16:00 | 42.01159 | 25.28828 | 34977 ft | 488 kts | 94° |
| 2026-05-06 16:01 | 42.00233 | 25.37867 | 34982 ft | 488 kts | 94° |
| 2026-05-06 16:01 | 41.99120 | 25.46827 | 34985 ft | 492 kts | 101° |
| 2026-05-06 16:02 | 41.97330 | 25.55733 | 34988 ft | 493 kts | 102° |
| 2026-05-06 16:02 | 41.96404 | 25.60172 | 34875 ft | 491 kts | 102° |
| 2026-05-06 16:02 | 41.95489 | 25.64582 | 34410 ft | 488 kts | 102° |
| 2026-05-06 16:03 | 41.94588 | 25.68970 | 33775 ft | 488 kts | 101° |
| 2026-05-06 16:03 | 41.93695 | 25.73361 | 33136 ft | 487 kts | 101° |
| 2026-05-06 16:03 | 41.92810 | 25.77723 | 32676 ft | 482 kts | 101° |
| 2026-05-06 16:03 | 41.91933 | 25.82048 | 32252 ft | 477 kts | 101° |
| 2026-05-06 16:04 | 41.91066 | 25.86316 | 31825 ft | 472 kts | 101° |
| 2026-05-06 16:04 | 41.90206 | 25.90544 | 31347 ft | 469 kts | 101° |
| 2026-05-06 16:04 | 41.89348 | 25.94752 | 30853 ft | 467 kts | 101° |
| 2026-05-06 16:04 | 41.88489 | 25.98956 | 30361 ft | 464 kts | 101° |
| 2026-05-06 16:05 | 41.87637 | 26.03119 | 29911 ft | 461 kts | 101° |
| 2026-05-06 16:05 | 41.86788 | 26.07252 | 29442 ft | 456 kts | 101° |
| 2026-05-06 16:05 | 41.85949 | 26.11324 | 28981 ft | 451 kts | 101° |
| 2026-05-06 16:05 | 41.85116 | 26.15368 | 28505 ft | 447 kts | 101° |
| 2026-05-06 16:06 | 41.84291 | 26.19362 | 28081 ft | 443 kts | 101° |
| 2026-05-06 16:06 | 41.83484 | 26.23262 | 27638 ft | 439 kts | 101° |
| 2026-05-06 16:06 | 41.82659 | 26.27247 | 27188 ft | 435 kts | 101° |
| 2026-05-06 16:06 | 41.81862 | 26.31093 | 26743 ft | 431 kts | 101° |
| 2026-05-06 16:07 | 41.81057 | 26.34956 | 26312 ft | 428 kts | 101° |
| 2026-05-06 16:07 | 41.80194 | 26.38758 | 25884 ft | 426 kts | 105° |
| 2026-05-06 16:07 | 41.79179 | 26.42477 | 25466 ft | 424 kts | 107° |
| 2026-05-06 16:07 | 41.78122 | 26.46138 | 25050 ft | 420 kts | 107° |
| 2026-05-06 16:08 | 41.77085 | 26.49791 | 24645 ft | 417 kts | 107° |
| 2026-05-06 16:08 | 41.76077 | 26.53425 | 24249 ft | 413 kts | 106° |
| 2026-05-06 16:08 | 41.75074 | 26.57015 | 23849 ft | 411 kts | 109° |
| 2026-05-06 16:08 | 41.73716 | 26.60387 | 23378 ft | 413 kts | 120° |
| 2026-05-06 16:09 | 41.72081 | 26.63536 | 22945 ft | 410 kts | 122° |
| 2026-05-06 16:09 | 41.70438 | 26.66635 | 22671 ft | 403 kts | 122° |
| 2026-05-06 16:09 | 41.68860 | 26.69699 | 22420 ft | 398 kts | 121° |
| 2026-05-06 16:09 | 41.67319 | 26.72778 | 22167 ft | 399 kts | 120° |
| 2026-05-06 16:10 | 41.65780 | 26.75883 | 21935 ft | 401 kts | 120° |
| 2026-05-06 16:10 | 41.64013 | 26.78738 | 21659 ft | 404 kts | 139° |
| 2026-05-06 16:10 | 41.61601 | 26.80690 | 21433 ft | 407 kts | 159° |
| 2026-05-06 16:10 | 41.58855 | 26.81565 | 21203 ft | 407 kts | 173° |
| 2026-05-06 16:11 | 41.56045 | 26.82077 | 20952 ft | 407 kts | 172° |
| 2026-05-06 16:11 | 41.53248 | 26.82625 | 20686 ft | 404 kts | 172° |
| 2026-05-06 16:11 | 41.50506 | 26.83243 | 20418 ft | 395 kts | 166° |
| 2026-05-06 16:11 | 41.48015 | 26.84702 | 20182 ft | 389 kts | 143° |
| 2026-05-06 16:12 | 41.46051 | 26.87114 | 19977 ft | 384 kts | 126° |
| 2026-05-06 16:12 | 41.45051 | 26.89060 | 19818 ft | 381 kts | 114° |
| 2026-05-06 16:12 | 41.43956 | 26.92264 | 19601 ft | 378 kts | 109° |
| 2026-05-06 16:12 | 41.42957 | 26.95479 | 19374 ft | 379 kts | 109° |
| 2026-05-06 16:13 | 41.41928 | 26.98749 | 19137 ft | 379 kts | 110° |
| 2026-05-06 16:13 | 41.40539 | 27.03014 | 18833 ft | 379 kts | 110° |
| 2026-05-06 16:13 | 41.39820 | 27.05191 | 18671 ft | 379 kts | 110° |
| 2026-05-06 16:13 | 41.38541 | 27.08221 | 18414 ft | 378 kts | 127° |
| 2026-05-06 16:14 | 41.36575 | 27.10532 | 18184 ft | 378 kts | 147° |
| 2026-05-06 16:14 | 41.34316 | 27.12301 | 17954 ft | 376 kts | 149° |
| 2026-05-06 16:14 | 41.32050 | 27.14039 | 17699 ft | 376 kts | 148° |
| 2026-05-06 16:14 | 41.29784 | 27.15791 | 17486 ft | 376 kts | 148° |
| 2026-05-06 16:15 | 41.27543 | 27.17542 | 17244 ft | 375 kts | 148° |
| 2026-05-06 16:15 | 41.25292 | 27.19317 | 16990 ft | 374 kts | 148° |
| 2026-05-06 16:15 | 41.23055 | 27.21088 | 16783 ft | 374 kts | 148° |
| 2026-05-06 16:15 | 41.20825 | 27.22853 | 16555 ft | 373 kts | 148° |
| 2026-05-06 16:16 | 41.18621 | 27.24598 | 16330 ft | 372 kts | 147° |
| 2026-05-06 16:16 | 41.16384 | 27.26381 | 16103 ft | 371 kts | 147° |
| 2026-05-06 16:16 | 41.14208 | 27.28119 | 15878 ft | 370 kts | 147° |
| 2026-05-06 16:16 | 41.12005 | 27.29877 | 15658 ft | 369 kts | 147° |
| 2026-05-06 16:17 | 41.09813 | 27.31622 | 15425 ft | 368 kts | 147° |
| 2026-05-06 16:17 | 41.07584 | 27.33396 | 15135 ft | 368 kts | 147° |
| 2026-05-06 16:17 | 41.05425 | 27.35111 | 14890 ft | 366 kts | 147° |
| 2026-05-06 16:17 | 41.03246 | 27.36842 | 14689 ft | 364 kts | 147° |
| 2026-05-06 16:18 | 41.01078 | 27.38562 | 14451 ft | 363 kts | 147° |
| 2026-05-06 16:18 | 40.98915 | 27.40276 | 14220 ft | 361 kts | 147° |
| 2026-05-06 16:18 | 40.96906 | 27.42175 | 13983 ft | 351 kts | 131° |
| 2026-05-06 16:18 | 40.95538 | 27.44763 | 13787 ft | 341 kts | 111° |
| 2026-05-06 16:19 | 40.94666 | 27.47648 | 13601 ft | 338 kts | 107° |
| 2026-05-06 16:19 | 40.93839 | 27.50576 | 13398 ft | 341 kts | 107° |
| 2026-05-06 16:19 | 40.92998 | 27.53521 | 13197 ft | 343 kts | 107° |
| 2026-05-06 16:19 | 40.92136 | 27.56463 | 12997 ft | 343 kts | 108° |
| 2026-05-06 16:20 | 40.91266 | 27.59396 | 12795 ft | 342 kts | 108° |
| 2026-05-06 16:20 | 40.90374 | 27.62302 | 12611 ft | 342 kts | 110° |
| 2026-05-06 16:20 | 40.89394 | 27.65166 | 12410 ft | 341 kts | 111° |
| 2026-05-06 16:20 | 40.88393 | 27.67998 | 12230 ft | 341 kts | 111° |
| 2026-05-06 16:21 | 40.87390 | 27.70838 | 12015 ft | 340 kts | 111° |
| 2026-05-06 16:21 | 40.86399 | 27.73663 | 11833 ft | 339 kts | 111° |
| 2026-05-06 16:21 | 40.85412 | 27.76493 | 11642 ft | 338 kts | 111° |
| 2026-05-06 16:21 | 40.84448 | 27.79266 | 11454 ft | 337 kts | 111° |
| 2026-05-06 16:22 | 40.83471 | 27.82078 | 11271 ft | 336 kts | 111° |
| 2026-05-06 16:22 | 40.82498 | 27.84878 | 11073 ft | 333 kts | 110° |
| 2026-05-06 16:22 | 40.81908 | 27.87761 | 10865 ft | 322 kts | 88° |
| 2026-05-06 16:22 | 40.82051 | 27.90665 | 10692 ft | 316 kts | 79° |
| 2026-05-06 16:23 | 40.82277 | 27.93559 | 10553 ft | 315 kts | 80° |
| 2026-05-06 16:23 | 40.82489 | 27.96414 | 10321 ft | 310 kts | 80° |
| 2026-05-06 16:23 | 40.82691 | 27.99221 | 10119 ft | 303 kts | 80° |
| 2026-05-06 16:23 | 40.82883 | 28.01952 | 9926 ft | 296 kts | 80° |
| 2026-05-06 16:24 | 40.83068 | 28.04615 | 9753 ft | 288 kts | 80° |
| 2026-05-06 16:24 | 40.83247 | 28.07225 | 9552 ft | 282 kts | 80° |
| 2026-05-06 16:24 | 40.83418 | 28.09740 | 9373 ft | 277 kts | 80° |
| 2026-05-06 16:24 | 40.83589 | 28.12263 | 9207 ft | 274 kts | 80° |
| 2026-05-06 16:25 | 40.83757 | 28.14761 | 9046 ft | 273 kts | 80° |
| 2026-05-06 16:25 | 40.83925 | 28.17264 | 8875 ft | 272 kts | 80° |
| 2026-05-06 16:25 | 40.84091 | 28.19750 | 8710 ft | 271 kts | 80° |
| 2026-05-06 16:25 | 40.84255 | 28.22220 | 8550 ft | 270 kts | 80° |
| 2026-05-06 16:26 | 40.84419 | 28.24687 | 8381 ft | 269 kts | 80° |
| 2026-05-06 16:26 | 40.84582 | 28.27149 | 8219 ft | 269 kts | 80° |
| 2026-05-06 16:26 | 40.84745 | 28.29618 | 8059 ft | 270 kts | 80° |
| 2026-05-06 16:26 | 40.84907 | 28.32084 | 7890 ft | 270 kts | 80° |
| 2026-05-06 16:27 | 40.85070 | 28.34564 | 7727 ft | 271 kts | 80° |
| 2026-05-06 16:27 | 40.85232 | 28.37047 | 7554 ft | 272 kts | 80° |
| 2026-05-06 16:27 | 40.85394 | 28.39532 | 7396 ft | 272 kts | 80° |
| 2026-05-06 16:27 | 40.85553 | 28.42002 | 7246 ft | 267 kts | 80° |
| 2026-05-06 16:28 | 40.85707 | 28.44411 | 7062 ft | 260 kts | 80° |
| 2026-05-06 16:28 | 40.86140 | 28.46607 | 6804 ft | 240 kts | 53° |
| 2026-05-06 16:28 | 40.87107 | 28.48334 | 6639 ft | 234 kts | 47° |
| 2026-05-06 16:28 | 40.88111 | 28.50074 | 6344 ft | 241 kts | 48° |
| 2026-05-06 16:29 | 40.89123 | 28.51844 | 6024 ft | 240 kts | 49° |
| 2026-05-06 16:29 | 40.90121 | 28.53594 | 5739 ft | 237 kts | 49° |
| 2026-05-06 16:29 | 40.91107 | 28.55323 | 5458 ft | 234 kts | 49° |
| 2026-05-06 16:29 | 40.92080 | 28.57029 | 5193 ft | 231 kts | 49° |
| 2026-05-06 16:30 | 40.93040 | 28.58714 | 4932 ft | 229 kts | 49° |
| 2026-05-06 16:30 | 40.93676 | 28.59830 | 4748 ft | 228 kts | 50° |
| 2026-05-06 16:30 | 40.94936 | 28.62043 | 4389 ft | 227 kts | 50° |
| 2026-05-06 16:30 | 40.95883 | 28.63706 | 4131 ft | 226 kts | 50° |
| 2026-05-06 16:31 | 40.96828 | 28.65368 | 3875 ft | 226 kts | 51° |
| 2026-05-06 16:31 | 40.97774 | 28.67032 | 3608 ft | 226 kts | 51° |
| 2026-05-06 16:31 | 40.98720 | 28.68698 | 3341 ft | 227 kts | 51° |
| 2026-05-06 16:31 | 40.99741 | 28.70261 | 3070 ft | 219 kts | 34° |
| 2026-05-06 16:32 | 41.01118 | 28.70902 | 2999 ft | 211 kts | 6° |
| 2026-05-06 16:32 | 41.02585 | 28.71088 | 2986 ft | 212 kts | 3° |
| 2026-05-06 16:32 | 41.04052 | 28.71155 | 2980 ft | 208 kts | 360° |
| 2026-05-06 16:32 | 41.05487 | 28.71153 | 2975 ft | 205 kts | 359° |
| 2026-05-06 16:33 | 41.06916 | 28.71128 | 2978 ft | 207 kts | 359° |
| 2026-05-06 16:33 | 41.08347 | 28.71103 | 2989 ft | 204 kts | 359° |
| 2026-05-06 16:33 | 41.09769 | 28.71073 | 2981 ft | 204 kts | 358° |
| 2026-05-06 16:34 | 41.12469 | 28.71016 | 2953 ft | 185 kts | 358° |
| 2026-05-06 16:34 | 41.13751 | 28.70993 | 2907 ft | 185 kts | 358° |
| 2026-05-06 16:34 | 41.15048 | 28.70967 | 2624 ft | 186 kts | 358° |
| 2026-05-06 16:34 | 41.16321 | 28.70941 | 2377 ft | 181 kts | 359° |
| 2026-05-06 16:35 | 41.17564 | 28.70917 | 2140 ft | 176 kts | 359° |
| 2026-05-06 16:35 | 41.18793 | 28.70894 | 1901 ft | 177 kts | 360° |
| 2026-05-06 16:35 | 41.20020 | 28.70870 | 1659 ft | 177 kts | 359° |
| 2026-05-06 16:35 | 41.21246 | 28.70846 | 1434 ft | 174 kts | 359° |
| 2026-05-06 16:36 | 41.22426 | 28.70821 | 1184 ft | 168 kts | 0° |
| 2026-05-06 16:36 | 41.23567 | 28.70798 | 949 ft | 159 kts | 1° |
| 2026-05-06 16:36 | 41.24640 | 28.70774 | 727 ft | 148 kts | 0° |
| 2026-05-06 16:36 | 41.25652 | 28.70753 | 538 ft | 145 kts | 1° |
| 2026-05-06 16:37 | 41.26657 | 28.70732 | 371 ft | 145 kts | 2° |
| 2026-05-06 16:37 | 41.27600 | 28.70725 | 336 ft | 120 kts | 359° |
| 2026-05-06 16:37 | 41.28255 | 28.70709 | 335 ft | 67 kts | 359° |
| 2026-05-06 16:37 | 41.28528 | 28.70731 | 336 ft | 16 kts | 14° |
| 2026-05-06 16:38 | 41.28625 | 28.70783 | 335 ft | 22 kts | 29° |
| 2026-05-06 16:38 | 41.28735 | 28.70868 | 335 ft | 13 kts | 29° |
| 2026-05-06 16:38 | 41.28813 | 28.70926 | 333 ft | 13 kts | 29° |
| 2026-05-06 16:38 | 41.28892 | 28.70984 | 335 ft | 13 kts | 28° |
| 2026-05-06 16:39 | 41.28970 | 28.71041 | 336 ft | 13 kts | 28° |
| 2026-05-06 16:39 | 41.29009 | 28.71129 | 335 ft | 13 kts | 120° |
| 2026-05-06 16:39 | 41.28925 | 28.71160 | 338 ft | 13 kts | 177° |
| 2026-05-06 16:39 | 41.28832 | 28.71162 | 338 ft | 14 kts | 179° |
| 2026-05-06 16:40 | 41.28738 | 28.71164 | 334 ft | 14 kts | 179° |
| 2026-05-06 16:40 | 41.28642 | 28.71166 | 336 ft | 14 kts | 179° |
| 2026-05-06 16:40 | 41.28547 | 28.71169 | 338 ft | 14 kts | 179° |
| 2026-05-06 16:40 | 41.28453 | 28.71171 | 334 ft | 14 kts | 178° |
| 2026-05-06 16:41 | 41.28358 | 28.71174 | 335 ft | 14 kts | 179° |
| 2026-05-06 16:41 | 41.28263 | 28.71176 | 336 ft | 14 kts | 179° |
| 2026-05-06 16:41 | 41.28167 | 28.71179 | 334 ft | 14 kts | 179° |
| 2026-05-06 16:41 | 41.28072 | 28.71181 | 335 ft | 14 kts | 179° |
| 2026-05-06 16:42 | 41.27970 | 28.71182 | 338 ft | 15 kts | 179° |
| 2026-05-06 16:42 | 41.27866 | 28.71184 | 335 ft | 15 kts | 179° |
| 2026-05-06 16:42 | 41.27763 | 28.71187 | 338 ft | 15 kts | 179° |
| 2026-05-06 16:42 | 41.27659 | 28.71190 | 333 ft | 15 kts | 179° |
| 2026-05-06 16:43 | 41.27553 | 28.71192 | 338 ft | 16 kts | 179° |
| 2026-05-06 16:43 | 41.27431 | 28.71195 | 336 ft | 19 kts | 179° |
| 2026-05-06 16:43 | 41.27290 | 28.71199 | 335 ft | 22 kts | 179° |
| 2026-05-06 16:43 | 41.27130 | 28.71203 | 334 ft | 24 kts | 179° |
| 2026-05-06 16:44 | 41.26955 | 28.71207 | 336 ft | 26 kts | 179° |
| 2026-05-06 16:44 | 41.26795 | 28.71210 | 334 ft | 15 kts | 179° |
| 2026-05-06 16:44 | 41.26704 | 28.71239 | 335 ft | 12 kts | 125° |
| 2026-05-06 16:44 | 41.26696 | 28.71351 | 335 ft | 13 kts | 89° |
| 2026-05-06 16:45 | 41.26698 | 28.71468 | 335 ft | 13 kts | 89° |
| 2026-05-06 16:45 | 41.26699 | 28.71588 | 335 ft | 14 kts | 89° |
| 2026-05-06 16:45 | 41.26700 | 28.71723 | 335 ft | 16 kts | 89° |
| 2026-05-06 16:45 | 41.26702 | 28.71872 | 335 ft | 16 kts | 89° |
| 2026-05-06 16:46 | 41.26704 | 28.72021 | 336 ft | 16 kts | 89° |
| 2026-05-06 16:46 | 41.26706 | 28.72158 | 339 ft | 8 kts | 89° |
| 2026-05-06 16:46 | 41.26707 | 28.72234 | 339 ft | 8 kts | 89° |
| 2026-05-06 16:46 | 41.26708 | 28.72321 | 337 ft | 11 kts | 89° |
| 2026-05-06 16:47 | 41.26710 | 28.72454 | 335 ft | 18 kts | 89° |
| 2026-05-06 16:47 | 41.26713 | 28.72634 | 335 ft | 20 kts | 89° |
| 2026-05-06 16:47 | 41.26717 | 28.72818 | 339 ft | 20 kts | 89° |
| 2026-05-06 16:47 | 41.26718 | 28.72973 | 339 ft | 10 kts | 89° |
| 2026-05-06 16:48 | 41.26718 | 28.73033 | 339 ft | 6 kts | 89° |
| 2026-05-06 16:48 | 41.26718 | 28.73095 | 339 ft | 7 kts | 89° |
| 2026-05-06 16:48 | 41.26719 | 28.73162 | 339 ft | 8 kts | 89° |
| 2026-05-06 16:48 | 41.26745 | 28.73218 | 336 ft | 8 kts | 20° |
| 2026-05-06 16:49 | 41.26804 | 28.73222 | 337 ft | 9 kts | 0° |
| 2026-05-06 16:49 | 41.26858 | 28.73253 | 336 ft | 9 kts | 55° |
| 2026-05-06 16:49 | 41.26869 | 28.73335 | 335 ft | 9 kts | 86° |
| 2026-05-06 16:49 | 41.26871 | 28.73420 | 335 ft | 10 kts | 90° |
| 2026-05-06 16:50 | 41.26871 | 28.73512 | 335 ft | 11 kts | 89° |
| 2026-05-06 16:50 | 41.26873 | 28.73615 | 335 ft | 11 kts | 88° |
| 2026-05-06 16:50 | 41.26874 | 28.73727 | 335 ft | 13 kts | 89° |
| 2026-05-06 16:50 | 41.26875 | 28.73799 | 335 ft | 8 kts | 89° |
| 2026-05-06 16:51 | 41.26843 | 28.73875 | 335 ft | 8 kts | 170° |
| 2026-05-06 16:51 | 41.26782 | 28.73874 | 336 ft | 9 kts | 180° |
| 2026-05-06 16:51 | 41.26722 | 28.73854 | 336 ft | 7 kts | 230° |
| 2026-05-06 16:51 | 41.26720 | 28.73788 | 337 ft | 7 kts | 270° |
| 2026-05-06 16:52 | 41.26720 | 28.73766 | 339 ft | 1 kts | 270° |
| 2026-05-06 16:52 | 41.26720 | 28.73765 | 339 ft | 0 kts | 270° |